Pittsburgh, Pennsylvania
Traffic Map
Current Weather Conditions
Pittsburgh, Pennsylvania
Scattered Clouds
Scattered Clouds
28°
Feels Like: 29°
Wind Chill: 28° Ceiling: Unl
Heat Index: 29° Visibility: 10mi
Dew Point: 17° Wind: 6mph
Humidity: 51% Direction: 90° (E)
Pressure: 30.15in Gusts: 0mph
Raw Report DataKAGC 251853Z 09005KT 10SM SCT047 28/17 A3015 RMK AO2 SLP205 T02830172
Traffic Incident Summary
Active as of:
Severity:
Category:
InformationThere was an issue retrieving the traffic information for this location. Please try a different location or try again shortly.
Advertisements
Track Severe Weather on mobile